sensor_id;sensor_type;location;lat;lon;timestamp;temperature;humidity
68026;SHT31;54819;48.030;14.710;2023-07-28T00:00:30;18.33;63.41
68026;SHT31;54819;48.030;14.710;2023-07-28T00:02:56;18.29;62.47
68026;SHT31;54819;48.030;14.710;2023-07-28T00:05:23;18.24;62.10
68026;SHT31;54819;48.030;14.710;2023-07-28T00:07:50;18.20;61.88
68026;SHT31;54819;48.030;14.710;2023-07-28T00:10:17;18.17;61.59
68026;SHT31;54819;48.030;14.710;2023-07-28T00:12:44;18.14;61.90
68026;SHT31;54819;48.030;14.710;2023-07-28T00:15:10;18.12;62.35
68026;SHT31;54819;48.030;14.710;2023-07-28T00:17:37;18.09;62.36
68026;SHT31;54819;48.030;14.710;2023-07-28T00:20:04;18.06;62.40
68026;SHT31;54819;48.030;14.710;2023-07-28T00:22:31;18.05;62.40
68026;SHT31;54819;48.030;14.710;2023-07-28T00:24:58;18.03;62.19
68026;SHT31;54819;48.030;14.710;2023-07-28T00:27:25;18.02;61.75
68026;SHT31;54819;48.030;14.710;2023-07-28T00:29:51;18.01;61.50
68026;SHT31;54819;48.030;14.710;2023-07-28T00:32:18;18.01;61.36
68026;SHT31;54819;48.030;14.710;2023-07-28T00:34:44;18.00;61.69
68026;SHT31;54819;48.030;14.710;2023-07-28T00:37:11;17.99;62.28
68026;SHT31;54819;48.030;14.710;2023-07-28T00:39:39;17.98;61.90
68026;SHT31;54819;48.030;14.710;2023-07-28T00:42:06;17.99;61.47
68026;SHT31;54819;48.030;14.710;2023-07-28T00:44:32;17.99;62.11
68026;SHT31;54819;48.030;14.710;2023-07-28T00:46:59;17.96;63.09
68026;SHT31;54819;48.030;14.710;2023-07-28T00:49:26;17.92;63.16
68026;SHT31;54819;48.030;14.710;2023-07-28T00:51:52;17.89;63.69
68026;SHT31;54819;48.030;14.710;2023-07-28T00:54:19;17.87;63.90
68026;SHT31;54819;48.030;14.710;2023-07-28T00:56:46;17.84;63.61
68026;SHT31;54819;48.030;14.710;2023-07-28T00:59:13;17.80;64.05
68026;SHT31;54819;48.030;14.710;2023-07-28T01:01:40;17.74;64.06
68026;SHT31;54819;48.030;14.710;2023-07-28T01:04:07;17.70;63.88
68026;SHT31;54819;48.030;14.710;2023-07-28T01:06:43;17.65;64.19
68026;SHT31;54819;48.030;14.710;2023-07-28T01:09:50;17.58;64.51
68026;SHT31;54819;48.030;14.710;2023-07-28T01:12:27;17.52;64.50
68026;SHT31;54819;48.030;14.710;2023-07-28T01:14:53;17.47;64.14
68026;SHT31;54819;48.030;14.710;2023-07-28T01:17:20;17.42;63.79
68026;SHT31;54819;48.030;14.710;2023-07-28T01:19:50;17.38;63.90
68026;SHT31;54819;48.030;14.710;2023-07-28T01:25:14;17.33;63.32
68026;SHT31;54819;48.030;14.710;2023-07-28T01:27:50;17.32;63.10
68026;SHT31;54819;48.030;14.710;2023-07-28T01:30:18;17.30;62.96
68026;SHT31;54819;48.030;14.710;2023-07-28T01:32:47;17.29;62.97
68026;SHT31;54819;48.030;14.710;2023-07-28T01:35:15;17.29;63.08
68026;SHT31;54819;48.030;14.710;2023-07-28T01:37:42;17.29;63.16
68026;SHT31;54819;48.030;14.710;2023-07-28T01:40:09;17.30;63.13
68026;SHT31;54819;48.030;14.710;2023-07-28T01:42:36;17.31;62.91
68026;SHT31;54819;48.030;14.710;2023-07-28T01:45:03;17.32;62.80
68026;SHT31;54819;48.030;14.710;2023-07-28T01:47:30;17.33;62.71
68026;SHT31;54819;48.030;14.710;2023-07-28T01:49:57;17.33;62.65
68026;SHT31;54819;48.030;14.710;2023-07-28T01:52:24;17.33;62.63
68026;SHT31;54819;48.030;14.710;2023-07-28T01:54:50;17.33;62.63
68026;SHT31;54819;48.030;14.710;2023-07-28T01:57:17;17.31;62.69
68026;SHT31;54819;48.030;14.710;2023-07-28T01:59:44;17.31;62.72
68026;SHT31;54819;48.030;14.710;2023-07-28T02:02:11;17.28;62.72
68026;SHT31;54819;48.030;14.710;2023-07-28T02:04:37;17.28;62.81
68026;SHT31;54819;48.030;14.710;2023-07-28T02:07:04;17.26;62.57
68026;SHT31;54819;48.030;14.710;2023-07-28T02:09:31;17.28;62.60
68026;SHT31;54819;48.030;14.710;2023-07-28T02:11:58;17.27;62.36
68026;SHT31;54819;48.030;14.710;2023-07-28T02:14:24;17.26;62.33
68026;SHT31;54819;48.030;14.710;2023-07-28T02:16:51;17.25;62.24
68026;SHT31;54819;48.030;14.710;2023-07-28T02:19:18;17.24;62.33
68026;SHT31;54819;48.030;14.710;2023-07-28T02:21:44;17.22;62.22
68026;SHT31;54819;48.030;14.710;2023-07-28T02:24:11;17.18;62.31
68026;SHT31;54819;48.030;14.710;2023-07-28T02:26:37;17.17;62.05
68026;SHT31;54819;48.030;14.710;2023-07-28T02:29:04;17.13;62.02
68026;SHT31;54819;48.030;14.710;2023-07-28T02:31:31;17.10;62.16
68026;SHT31;54819;48.030;14.710;2023-07-28T02:33:58;17.06;62.40
68026;SHT31;54819;48.030;14.710;2023-07-28T02:36:24;17.02;62.58
68026;SHT31;54819;48.030;14.710;2023-07-28T02:38:51;17.01;62.54
68026;SHT31;54819;48.030;14.710;2023-07-28T02:41:18;17.01;62.34
68026;SHT31;54819;48.030;14.710;2023-07-28T02:43:44;17.02;62.32
68026;SHT31;54819;48.030;14.710;2023-07-28T02:46:11;17.02;62.40
68026;SHT31;54819;48.030;14.710;2023-07-28T02:48:38;17.01;62.41
68026;SHT31;54819;48.030;14.710;2023-07-28T02:51:04;17.01;62.54
68026;SHT31;54819;48.030;14.710;2023-07-28T02:53:31;17.00;62.74
68026;SHT31;54819;48.030;14.710;2023-07-28T02:55:57;16.99;62.96
68026;SHT31;54819;48.030;14.710;2023-07-28T02:58:24;16.95;63.43
68026;SHT31;54819;48.030;14.710;2023-07-28T03:00:51;16.94;63.88
68026;SHT31;54819;48.030;14.710;2023-07-28T03:03:21;16.90;64.29
68026;SHT31;54819;48.030;14.710;2023-07-28T03:05:51;16.86;64.66
68026;SHT31;54819;48.030;14.710;2023-07-28T03:08:24;16.82;64.87
68026;SHT31;54819;48.030;14.710;2023-07-28T03:10:55;16.75;65.21
68026;SHT31;54819;48.030;14.710;2023-07-28T03:13:23;16.70;65.85
68026;SHT31;54819;48.030;14.710;2023-07-28T03:15:50;16.63;66.40
68026;SHT31;54819;48.030;14.710;2023-07-28T03:18:18;16.56;66.74
68026;SHT31;54819;48.030;14.710;2023-07-28T03:20:45;16.48;67.10
68026;SHT31;54819;48.030;14.710;2023-07-28T03:23:12;16.40;67.39
68026;SHT31;54819;48.030;14.710;2023-07-28T03:25:39;16.32;67.70
68026;SHT31;54819;48.030;14.710;2023-07-28T03:28:06;16.25;67.90
68026;SHT31;54819;48.030;14.710;2023-07-28T03:30:32;16.18;67.81
68026;SHT31;54819;48.030;14.710;2023-07-28T03:32:59;16.12;67.91
68026;SHT31;54819;48.030;14.710;2023-07-28T03:35:26;16.08;68.20
68026;SHT31;54819;48.030;14.710;2023-07-28T03:38:00;16.05;68.39
68026;SHT31;54819;48.030;14.710;2023-07-28T03:40:27;16.01;68.57
68026;SHT31;54819;48.030;14.710;2023-07-28T03:42:54;15.98;68.65
68026;SHT31;54819;48.030;14.710;2023-07-28T03:45:21;15.96;68.82
68026;SHT31;54819;48.030;14.710;2023-07-28T03:47:48;15.95;68.94
68026;SHT31;54819;48.030;14.710;2023-07-28T03:50:14;15.94;69.08
68026;SHT31;54819;48.030;14.710;2023-07-28T03:52:41;15.95;69.10
68026;SHT31;54819;48.030;14.710;2023-07-28T03:55:08;15.96;69.19
68026;SHT31;54819;48.030;14.710;2023-07-28T03:57:35;15.99;69.23
68026;SHT31;54819;48.030;14.710;2023-07-28T04:00:02;16.02;69.13
68026;SHT31;54819;48.030;14.710;2023-07-28T04:02:37;16.07;69.11
68026;SHT31;54819;48.030;14.710;2023-07-28T04:05:04;16.14;69.00
68026;SHT31;54819;48.030;14.710;2023-07-28T04:07:31;16.23;68.90
68026;SHT31;54819;48.030;14.710;2023-07-28T04:09:58;16.29;68.76
68026;SHT31;54819;48.030;14.710;2023-07-28T04:12:24;16.35;68.66
68026;SHT31;54819;48.030;14.710;2023-07-28T04:14:51;16.38;68.48
68026;SHT31;54819;48.030;14.710;2023-07-28T04:17:20;16.38;68.50
68026;SHT31;54819;48.030;14.710;2023-07-28T04:19:46;16.39;68.62
68026;SHT31;54819;48.030;14.710;2023-07-28T04:22:13;16.40;68.77
68026;SHT31;54819;48.030;14.710;2023-07-28T04:24:42;16.39;68.71
68026;SHT31;54819;48.030;14.710;2023-07-28T04:27:09;16.43;68.59
68026;SHT31;54819;48.030;14.710;2023-07-28T04:29:35;16.66;68.16
68026;SHT31;54819;48.030;14.710;2023-07-28T04:32:03;16.92;68.03
68026;SHT31;54819;48.030;14.710;2023-07-28T04:34:35;17.27;67.83
68026;SHT31;54819;48.030;14.710;2023-07-28T04:37:07;17.79;67.21
68026;SHT31;54819;48.030;14.710;2023-07-28T04:39:43;18.38;66.42
68026;SHT31;54819;48.030;14.710;2023-07-28T04:42:10;18.89;65.48
68026;SHT31;54819;48.030;14.710;2023-07-28T04:44:39;19.35;64.74
68026;SHT31;54819;48.030;14.710;2023-07-28T04:47:07;19.88;63.76
68026;SHT31;54819;48.030;14.710;2023-07-28T04:49:33;20.55;62.31
68026;SHT31;54819;48.030;14.710;2023-07-28T04:52:06;21.26;61.28
68026;SHT31;54819;48.030;14.710;2023-07-28T04:54:37;22.00;60.43
68026;SHT31;54819;48.030;14.710;2023-07-28T04:57:04;22.73;58.85
68026;SHT31;54819;48.030;14.710;2023-07-28T04:59:33;23.22;57.43
68026;SHT31;54819;48.030;14.710;2023-07-28T05:01:59;23.92;56.59
68026;SHT31;54819;48.030;14.710;2023-07-28T05:04:26;24.62;55.48
68026;SHT31;54819;48.030;14.710;2023-07-28T05:06:53;25.16;54.18
68026;SHT31;54819;48.030;14.710;2023-07-28T05:09:20;25.69;53.85
68026;SHT31;54819;48.030;14.710;2023-07-28T05:11:46;26.16;52.82
68026;SHT31;54819;48.030;14.710;2023-07-28T05:14:14;26.45;51.85
68026;SHT31;54819;48.030;14.710;2023-07-28T05:16:41;26.68;51.20
68026;SHT31;54819;48.030;14.710;2023-07-28T05:19:08;26.72;49.77
68026;SHT31;54819;48.030;14.710;2023-07-28T05:22:01;26.53;50.01
68026;SHT31;54819;48.030;14.710;2023-07-28T05:24:39;26.33;49.89
68026;SHT31;54819;48.030;14.710;2023-07-28T05:27:05;26.04;49.61
68026;SHT31;54819;48.030;14.710;2023-07-28T05:29:32;25.66;50.11
68026;SHT31;54819;48.030;14.710;2023-07-28T05:32:02;25.12;50.01
68026;SHT31;54819;48.030;14.710;2023-07-28T05:34:41;24.30;51.34
68026;SHT31;54819;48.030;14.710;2023-07-28T05:37:09;23.56;52.70
68026;SHT31;54819;48.030;14.710;2023-07-28T05:39:36;22.99;53.91
68026;SHT31;54819;48.030;14.710;2023-07-28T05:42:03;22.56;54.72
68026;SHT31;54819;48.030;14.710;2023-07-28T05:44:30;22.13;55.63
68026;SHT31;54819;48.030;14.710;2023-07-28T05:46:57;21.68;56.36
68026;SHT31;54819;48.030;14.710;2023-07-28T05:49:24;21.40;57.08
68026;SHT31;54819;48.030;14.710;2023-07-28T05:51:51;21.09;58.11
68026;SHT31;54819;48.030;14.710;2023-07-28T05:54:18;20.94;58.02
68026;SHT31;54819;48.030;14.710;2023-07-28T05:56:44;20.79;58.53
68026;SHT31;54819;48.030;14.710;2023-07-28T05:59:11;20.67;58.69
68026;SHT31;54819;48.030;14.710;2023-07-28T06:01:38;20.59;59.24
68026;SHT31;54819;48.030;14.710;2023-07-28T06:04:07;20.54;59.14
68026;SHT31;54819;48.030;14.710;2023-07-28T06:06:39;20.56;58.93
68026;SHT31;54819;48.030;14.710;2023-07-28T06:09:06;20.57;58.56
68026;SHT31;54819;48.030;14.710;2023-07-28T06:11:34;20.60;58.96
68026;SHT31;54819;48.030;14.710;2023-07-28T06:14:02;20.67;59.15
68026;SHT31;54819;48.030;14.710;2023-07-28T06:16:32;20.71;59.14
68026;SHT31;54819;48.030;14.710;2023-07-28T06:18:59;20.77;59.10
68026;SHT31;54819;48.030;14.710;2023-07-28T06:21:25;20.80;59.10
68026;SHT31;54819;48.030;14.710;2023-07-28T06:23:52;20.77;59.00
68026;SHT31;54819;48.030;14.710;2023-07-28T06:26:19;20.76;59.46
68026;SHT31;54819;48.030;14.710;2023-07-28T06:28:46;20.81;59.91
68026;SHT31;54819;48.030;14.710;2023-07-28T06:31:13;20.89;60.23
68026;SHT31;54819;48.030;14.710;2023-07-28T06:33:40;20.99;59.88
68026;SHT31;54819;48.030;14.710;2023-07-28T06:36:07;21.06;59.81
68026;SHT31;54819;48.030;14.710;2023-07-28T06:38:34;21.14;59.97
68026;SHT31;54819;48.030;14.710;2023-07-28T06:41:00;21.17;59.52
68026;SHT31;54819;48.030;14.710;2023-07-28T06:43:27;21.24;59.63
68026;SHT31;54819;48.030;14.710;2023-07-28T06:45:54;21.30;59.18
68026;SHT31;54819;48.030;14.710;2023-07-28T06:48:21;21.35;59.29
68026;SHT31;54819;48.030;14.710;2023-07-28T06:50:48;21.43;59.22
68026;SHT31;54819;48.030;14.710;2023-07-28T06:53:15;21.48;59.19
68026;SHT31;54819;48.030;14.710;2023-07-28T06:55:43;21.58;59.21
68026;SHT31;54819;48.030;14.710;2023-07-28T06:58:10;21.67;58.94
68026;SHT31;54819;48.030;14.710;2023-07-28T07:00:37;21.76;58.67
68026;SHT31;54819;48.030;14.710;2023-07-28T07:03:03;21.88;58.68
68026;SHT31;54819;48.030;14.710;2023-07-28T07:05:30;22.07;58.71
68026;SHT31;54819;48.030;14.710;2023-07-28T07:07:58;22.23;58.21
68026;SHT31;54819;48.030;14.710;2023-07-28T07:10:25;22.34;58.15
68026;SHT31;54819;48.030;14.710;2023-07-28T07:12:51;22.41;58.13
68026;SHT31;54819;48.030;14.710;2023-07-28T07:15:19;22.50;57.91
68026;SHT31;54819;48.030;14.710;2023-07-28T07:17:45;22.59;57.77
68026;SHT31;54819;48.030;14.710;2023-07-28T07:20:12;22.70;57.58
68026;SHT31;54819;48.030;14.710;2023-07-28T07:22:39;22.83;57.26
68026;SHT31;54819;48.030;14.710;2023-07-28T07:25:05;22.93;56.64
68026;SHT31;54819;48.030;14.710;2023-07-28T07:27:33;22.98;56.77
68026;SHT31;54819;48.030;14.710;2023-07-28T07:30:00;22.99;56.66
68026;SHT31;54819;48.030;14.710;2023-07-28T07:32:26;22.98;56.22
68026;SHT31;54819;48.030;14.710;2023-07-28T07:34:53;23.01;56.32
68026;SHT31;54819;48.030;14.710;2023-07-28T07:37:20;22.96;56.53
68026;SHT31;54819;48.030;14.710;2023-07-28T07:39:46;22.94;56.69
68026;SHT31;54819;48.030;14.710;2023-07-28T07:42:13;22.97;56.37
68026;SHT31;54819;48.030;14.710;2023-07-28T07:44:41;23.02;56.24
68026;SHT31;54819;48.030;14.710;2023-07-28T07:47:13;23.00;56.02
68026;SHT31;54819;48.030;14.710;2023-07-28T07:49:42;23.02;55.11
68026;SHT31;54819;48.030;14.710;2023-07-28T07:52:09;23.10;54.77
68026;SHT31;54819;48.030;14.710;2023-07-28T07:54:36;23.31;54.60
68026;SHT31;54819;48.030;14.710;2023-07-28T07:57:03;23.49;54.94
68026;SHT31;54819;48.030;14.710;2023-07-28T07:59:30;23.57;54.57
68026;SHT31;54819;48.030;14.710;2023-07-28T08:02:01;23.51;54.95
68026;SHT31;54819;48.030;14.710;2023-07-28T08:04:30;23.45;55.52
68026;SHT31;54819;48.030;14.710;2023-07-28T08:06:58;23.43;55.54
68026;SHT31;54819;48.030;14.710;2023-07-28T08:09:27;23.48;56.83
68026;SHT31;54819;48.030;14.710;2023-07-28T08:11:54;23.49;57.46
68026;SHT31;54819;48.030;14.710;2023-07-28T08:14:21;23.50;58.02
68026;SHT31;54819;48.030;14.710;2023-07-28T08:16:47;23.57;57.85
68026;SHT31;54819;48.030;14.710;2023-07-28T08:19:14;23.60;56.88
68026;SHT31;54819;48.030;14.710;2023-07-28T08:21:41;23.58;56.64
68026;SHT31;54819;48.030;14.710;2023-07-28T08:24:07;23.53;56.76
68026;SHT31;54819;48.030;14.710;2023-07-28T08:26:34;23.45;57.24
68026;SHT31;54819;48.030;14.710;2023-07-28T08:29:01;23.35;57.68
68026;SHT31;54819;48.030;14.710;2023-07-28T08:31:28;23.25;58.13
68026;SHT31;54819;48.030;14.710;2023-07-28T08:33:55;23.22;58.62
68026;SHT31;54819;48.030;14.710;2023-07-28T08:36:21;23.24;58.68
68026;SHT31;54819;48.030;14.710;2023-07-28T08:38:48;23.27;58.86
68026;SHT31;54819;48.030;14.710;2023-07-28T08:41:15;23.30;58.82
68026;SHT31;54819;48.030;14.710;2023-07-28T08:43:42;23.35;58.98
68026;SHT31;54819;48.030;14.710;2023-07-28T08:46:08;23.37;58.68
68026;SHT31;54819;48.030;14.710;2023-07-28T08:48:35;23.42;58.91
68026;SHT31;54819;48.030;14.710;2023-07-28T08:51:02;23.51;59.73
68026;SHT31;54819;48.030;14.710;2023-07-28T08:53:34;23.56;59.84
68026;SHT31;54819;48.030;14.710;2023-07-28T08:56:01;23.58;60.44
68026;SHT31;54819;48.030;14.710;2023-07-28T08:58:32;23.54;61.00
68026;SHT31;54819;48.030;14.710;2023-07-28T09:00:59;23.51;61.69
68026;SHT31;54819;48.030;14.710;2023-07-28T09:03:29;23.48;62.26
68026;SHT31;54819;48.030;14.710;2023-07-28T09:06:02;23.45;62.43
68026;SHT31;54819;48.030;14.710;2023-07-28T09:08:32;23.49;62.60
68026;SHT31;54819;48.030;14.710;2023-07-28T09:11:01;23.50;62.51
68026;SHT31;54819;48.030;14.710;2023-07-28T09:13:39;23.48;62.34
68026;SHT31;54819;48.030;14.710;2023-07-28T09:16:17;23.50;62.77
68026;SHT31;54819;48.030;14.710;2023-07-28T09:18:45;23.55;62.64
68026;SHT31;54819;48.030;14.710;2023-07-28T09:21:16;23.58;62.32
68026;SHT31;54819;48.030;14.710;2023-07-28T09:23:44;23.66;62.03
68026;SHT31;54819;48.030;14.710;2023-07-28T09:26:12;23.81;62.21
68026;SHT31;54819;48.030;14.710;2023-07-28T09:28:39;23.91;62.03
68026;SHT31;54819;48.030;14.710;2023-07-28T09:31:08;23.98;62.16
68026;SHT31;54819;48.030;14.710;2023-07-28T09:33:35;23.98;61.60
68026;SHT31;54819;48.030;14.710;2023-07-28T09:36:07;23.96;61.26
68026;SHT31;54819;48.030;14.710;2023-07-28T09:38:38;23.93;60.72
68026;SHT31;54819;48.030;14.710;2023-07-28T09:41:07;23.89;60.42
68026;SHT31;54819;48.030;14.710;2023-07-28T09:43:37;23.91;60.25
68026;SHT31;54819;48.030;14.710;2023-07-28T09:46:06;23.93;60.03
68026;SHT31;54819;48.030;14.710;2023-07-28T09:48:34;23.97;59.87
68026;SHT31;54819;48.030;14.710;2023-07-28T09:51:27;23.95;60.08
68026;SHT31;54819;48.030;14.710;2023-07-28T09:53:58;23.88;60.40
68026;SHT31;54819;48.030;14.710;2023-07-28T09:56:30;23.82;60.36
68026;SHT31;54819;48.030;14.710;2023-07-28T09:58:58;23.80;60.28
68026;SHT31;54819;48.030;14.710;2023-07-28T10:01:25;23.80;60.15
68026;SHT31;54819;48.030;14.710;2023-07-28T10:03:53;23.83;60.47
68026;SHT31;54819;48.030;14.710;2023-07-28T10:06:20;23.97;60.34
68026;SHT31;54819;48.030;14.710;2023-07-28T10:08:48;24.12;60.42
68026;SHT31;54819;48.030;14.710;2023-07-28T10:11:15;24.28;60.08
68026;SHT31;54819;48.030;14.710;2023-07-28T10:13:43;24.49;59.68
68026;SHT31;54819;48.030;14.710;2023-07-28T10:16:13;24.60;59.14
68026;SHT31;54819;48.030;14.710;2023-07-28T10:18:53;24.61;58.92
68026;SHT31;54819;48.030;14.710;2023-07-28T10:21:21;24.66;58.92
68026;SHT31;54819;48.030;14.710;2023-07-28T10:23:56;24.91;59.19
68026;SHT31;54819;48.030;14.710;2023-07-28T10:26:42;25.22;58.38
68026;SHT31;54819;48.030;14.710;2023-07-28T10:29:11;25.45;58.31
68026;SHT31;54819;48.030;14.710;2023-07-28T10:31:49;25.66;58.19
68026;SHT31;54819;48.030;14.710;2023-07-28T10:34:20;25.81;57.58
68026;SHT31;54819;48.030;14.710;2023-07-28T10:36:57;25.91;57.67
68026;SHT31;54819;48.030;14.710;2023-07-28T10:39:28;25.89;56.26
68026;SHT31;54819;48.030;14.710;2023-07-28T10:42:02;25.83;55.48
68026;SHT31;54819;48.030;14.710;2023-07-28T10:44:31;25.84;56.18
68026;SHT31;54819;48.030;14.710;2023-07-28T10:46:57;25.96;56.52
68026;SHT31;54819;48.030;14.710;2023-07-28T10:49:24;26.00;56.11
68026;SHT31;54819;48.030;14.710;2023-07-28T10:51:52;26.08;56.45
68026;SHT31;54819;48.030;14.710;2023-07-28T10:54:18;26.17;55.74
68026;SHT31;54819;48.030;14.710;2023-07-28T10:56:46;26.21;55.41
68026;SHT31;54819;48.030;14.710;2023-07-28T10:59:14;26.29;55.74
68026;SHT31;54819;48.030;14.710;2023-07-28T11:01:42;26.39;55.16
68026;SHT31;54819;48.030;14.710;2023-07-28T11:06:43;26.56;54.44
68026;SHT31;54819;48.030;14.710;2023-07-28T11:09:12;26.82;53.61
68026;SHT31;54819;48.030;14.710;2023-07-28T11:11:41;27.17;53.26
68026;SHT31;54819;48.030;14.710;2023-07-28T11:14:14;27.44;52.62
68026;SHT31;54819;48.030;14.710;2023-07-28T11:16:42;27.60;52.79
68026;SHT31;54819;48.030;14.710;2023-07-28T11:19:10;27.70;52.59
68026;SHT31;54819;48.030;14.710;2023-07-28T11:21:38;27.75;52.24
68026;SHT31;54819;48.030;14.710;2023-07-28T11:24:09;27.83;52.03
68026;SHT31;54819;48.030;14.710;2023-07-28T11:26:37;27.85;51.42
68026;SHT31;54819;48.030;14.710;2023-07-28T11:29:06;27.81;51.19
68026;SHT31;54819;48.030;14.710;2023-07-28T11:31:33;27.86;51.51
68026;SHT31;54819;48.030;14.710;2023-07-28T11:34:00;27.97;51.19
68026;SHT31;54819;48.030;14.710;2023-07-28T11:36:28;28.10;51.01
68026;SHT31;54819;48.030;14.710;2023-07-28T11:38:59;28.30;51.19
68026;SHT31;54819;48.030;14.710;2023-07-28T11:41:27;28.34;50.19
68026;SHT31;54819;48.030;14.710;2023-07-28T11:43:54;28.31;50.74
68026;SHT31;54819;48.030;14.710;2023-07-28T11:49:15;28.17;50.90
68026;SHT31;54819;48.030;14.710;2023-07-28T11:51:47;28.18;50.73
68026;SHT31;54819;48.030;14.710;2023-07-28T11:54:19;28.21;51.25
68026;SHT31;54819;48.030;14.710;2023-07-28T11:56:49;28.23;50.94
68026;SHT31;54819;48.030;14.710;2023-07-28T11:59:17;28.18;51.47
68026;SHT31;54819;48.030;14.710;2023-07-28T12:02:04;28.07;51.56
68026;SHT31;54819;48.030;14.710;2023-07-28T12:04:35;27.94;50.89
68026;SHT31;54819;48.030;14.710;2023-07-28T12:07:15;27.93;50.20
68026;SHT31;54819;48.030;14.710;2023-07-28T12:12:12;28.48;50.75
68026;SHT31;54819;48.030;14.710;2023-07-28T12:14:50;28.85;49.79
68026;SHT31;54819;48.030;14.710;2023-07-28T12:17:37;29.01;48.25
68026;SHT31;54819;48.030;14.710;2023-07-28T12:20:07;29.05;48.02
68026;SHT31;54819;48.030;14.710;2023-07-28T12:22:42;29.08;47.20
68026;SHT31;54819;48.030;14.710;2023-07-28T12:25:10;29.16;47.09
68026;SHT31;54819;48.030;14.710;2023-07-28T12:27:37;29.10;46.16
68026;SHT31;54819;48.030;14.710;2023-07-28T12:30:04;28.92;45.97
68026;SHT31;54819;48.030;14.710;2023-07-28T12:32:42;28.66;46.27
68026;SHT31;54819;48.030;14.710;2023-07-28T12:35:28;28.36;45.85
68026;SHT31;54819;48.030;14.710;2023-07-28T12:38:01;28.10;46.24
68026;SHT31;54819;48.030;14.710;2023-07-28T12:40:51;27.84;46.78
68026;SHT31;54819;48.030;14.710;2023-07-28T12:43:21;27.66;47.55
68026;SHT31;54819;48.030;14.710;2023-07-28T12:45:51;27.54;48.31
68026;SHT31;54819;48.030;14.710;2023-07-28T12:48:22;27.42;48.41
68026;SHT31;54819;48.030;14.710;2023-07-28T12:50:49;27.31;48.11
68026;SHT31;54819;48.030;14.710;2023-07-28T12:53:28;27.26;48.35
68026;SHT31;54819;48.030;14.710;2023-07-28T12:55:55;27.24;48.52
68026;SHT31;54819;48.030;14.710;2023-07-28T12:58:25;27.22;48.59
68026;SHT31;54819;48.030;14.710;2023-07-28T13:00:54;27.21;49.01
68026;SHT31;54819;48.030;14.710;2023-07-28T13:03:25;27.23;49.51
68026;SHT31;54819;48.030;14.710;2023-07-28T13:05:52;27.21;49.57
68026;SHT31;54819;48.030;14.710;2023-07-28T13:08:19;27.13;49.93
68026;SHT31;54819;48.030;14.710;2023-07-28T13:11:05;27.03;50.18
68026;SHT31;54819;48.030;14.710;2023-07-28T13:13:35;26.90;50.47
68026;SHT31;54819;48.030;14.710;2023-07-28T13:16:05;26.81;50.67
68026;SHT31;54819;48.030;14.710;2023-07-28T13:18:38;26.74;50.54
68026;SHT31;54819;48.030;14.710;2023-07-28T13:21:06;26.69;50.80
68026;SHT31;54819;48.030;14.710;2023-07-28T13:23:32;26.68;50.98
68026;SHT31;54819;48.030;14.710;2023-07-28T13:25:59;26.73;51.19
68026;SHT31;54819;48.030;14.710;2023-07-28T13:28:26;26.76;51.31
68026;SHT31;54819;48.030;14.710;2023-07-28T13:30:53;26.76;51.31
68026;SHT31;54819;48.030;14.710;2023-07-28T13:33:20;26.83;51.51
68026;SHT31;54819;48.030;14.710;2023-07-28T13:35:47;26.96;51.16
68026;SHT31;54819;48.030;14.710;2023-07-28T13:38:14;27.05;50.63
68026;SHT31;54819;48.030;14.710;2023-07-28T13:40:40;27.05;50.76
68026;SHT31;54819;48.030;14.710;2023-07-28T13:43:07;27.06;50.97
68026;SHT31;54819;48.030;14.710;2023-07-28T13:45:34;27.00;50.87
68026;SHT31;54819;48.030;14.710;2023-07-28T13:48:01;26.92;50.93
68026;SHT31;54819;48.030;14.710;2023-07-28T13:50:27;26.89;51.36
68026;SHT31;54819;48.030;14.710;2023-07-28T13:52:57;26.86;51.52
68026;SHT31;54819;48.030;14.710;2023-07-28T13:55:23;26.86;51.39
68026;SHT31;54819;48.030;14.710;2023-07-28T13:58:06;26.85;51.45
68026;SHT31;54819;48.030;14.710;2023-07-28T14:00:33;26.87;51.29
68026;SHT31;54819;48.030;14.710;2023-07-28T14:03:00;26.82;50.79
68026;SHT31;54819;48.030;14.710;2023-07-28T14:05:27;26.80;51.12
68026;SHT31;54819;48.030;14.710;2023-07-28T14:07:54;26.78;50.89
68026;SHT31;54819;48.030;14.710;2023-07-28T14:10:21;26.77;51.14
68026;SHT31;54819;48.030;14.710;2023-07-28T14:12:47;26.77;50.86
68026;SHT31;54819;48.030;14.710;2023-07-28T14:15:14;26.76;50.38
68026;SHT31;54819;48.030;14.710;2023-07-28T14:17:41;26.86;50.84
68026;SHT31;54819;48.030;14.710;2023-07-28T14:20:08;26.97;50.92
68026;SHT31;54819;48.030;14.710;2023-07-28T14:22:35;27.09;50.87
68026;SHT31;54819;48.030;14.710;2023-07-28T14:25:04;27.21;50.68
68026;SHT31;54819;48.030;14.710;2023-07-28T14:27:31;27.26;50.13
68026;SHT31;54819;48.030;14.710;2023-07-28T14:29:57;27.25;48.73
68026;SHT31;54819;48.030;14.710;2023-07-28T14:32:24;27.30;49.43
68026;SHT31;54819;48.030;14.710;2023-07-28T14:34:51;27.36;49.60
68026;SHT31;54819;48.030;14.710;2023-07-28T14:37:17;27.36;49.42
68026;SHT31;54819;48.030;14.710;2023-07-28T14:39:44;27.37;49.37
68026;SHT31;54819;48.030;14.710;2023-07-28T14:42:11;27.31;48.76
68026;SHT31;54819;48.030;14.710;2023-07-28T14:44:37;27.24;48.42
68026;SHT31;54819;48.030;14.710;2023-07-28T14:47:04;27.22;48.67
68026;SHT31;54819;48.030;14.710;2023-07-28T14:49:31;27.31;48.70
68026;SHT31;54819;48.030;14.710;2023-07-28T14:51:58;27.43;48.16
68026;SHT31;54819;48.030;14.710;2023-07-28T14:54:24;27.62;48.57
68026;SHT31;54819;48.030;14.710;2023-07-28T14:56:51;27.75;48.42
68026;SHT31;54819;48.030;14.710;2023-07-28T14:59:17;27.80;48.36
68026;SHT31;54819;48.030;14.710;2023-07-28T15:01:44;27.79;48.27
68026;SHT31;54819;48.030;14.710;2023-07-28T15:04:13;27.73;48.45
68026;SHT31;54819;48.030;14.710;2023-07-28T15:06:42;27.74;48.60
68026;SHT31;54819;48.030;14.710;2023-07-28T15:09:11;27.64;47.84
68026;SHT31;54819;48.030;14.710;2023-07-28T15:11:38;27.53;48.22
68026;SHT31;54819;48.030;14.710;2023-07-28T15:14:04;27.45;48.52
68026;SHT31;54819;48.030;14.710;2023-07-28T15:16:32;27.38;48.21
68026;SHT31;54819;48.030;14.710;2023-07-28T15:18:58;27.36;48.90
68026;SHT31;54819;48.030;14.710;2023-07-28T15:21:25;27.35;48.59
68026;SHT31;54819;48.030;14.710;2023-07-28T15:23:54;27.34;48.41
68026;SHT31;54819;48.030;14.710;2023-07-28T15:26:21;27.32;48.52
68026;SHT31;54819;48.030;14.710;2023-07-28T15:28:48;27.32;48.79
68026;SHT31;54819;48.030;14.710;2023-07-28T15:31:15;27.33;48.97
68026;SHT31;54819;48.030;14.710;2023-07-28T15:33:42;27.30;48.86